createdAt,value
2017-06-03T00:00:02.557Z,1003.47
2017-06-03T00:10:03.042Z,1003.4
2017-06-03T00:20:03.342Z,1003.23
2017-06-03T00:30:02.773Z,1003.03
2017-06-03T00:40:02.949Z,1002.88
2017-06-03T00:50:03.361Z,1002.86
2017-06-03T01:00:02.857Z,1002.88
2017-06-03T01:10:02.345Z,1002.86
2017-06-03T01:20:02.385Z,1002.73
2017-06-03T01:30:02.851Z,1002.85
2017-06-03T01:40:02.969Z,1002.88
2017-06-03T01:50:03.180Z,1003
2017-06-03T02:00:02.658Z,1002.77
2017-06-03T02:10:02.709Z,1002.86
2017-06-03T02:20:03.044Z,1002.88
2017-06-03T02:30:02.453Z,1002.56
2017-06-03T02:40:03.051Z,1002.51
2017-06-03T02:50:02.639Z,1002.42
2017-06-03T03:00:03.098Z,1002.32
2017-06-03T03:10:02.565Z,1002.3
2017-06-03T03:20:02.579Z,1002.38
2017-06-03T03:30:03.052Z,1002.2
2017-06-03T03:40:02.546Z,1002.19
2017-06-03T03:50:02.970Z,1002.09
2017-06-03T04:00:02.478Z,1002.07
2017-06-03T04:10:02.623Z,1001.97
2017-06-03T04:20:02.964Z,1002.01
2017-06-03T04:30:03.174Z,1001.9
2017-06-03T04:40:02.653Z,1002.08
2017-06-03T04:50:03.217Z,1002.03
2017-06-03T05:00:02.734Z,1002.06
2017-06-03T05:10:03.072Z,1001.97
2017-06-03T05:20:02.779Z,1002.04
2017-06-03T05:30:03.247Z,1001.89
2017-06-03T05:40:02.771Z,1001.97
2017-06-03T05:50:03.041Z,1001.81
2017-06-03T06:00:02.512Z,1001.9
2017-06-03T06:10:03.338Z,1001.9
2017-06-03T06:20:03.250Z,1002.02
2017-06-03T06:30:02.728Z,1002
2017-06-03T06:40:03.210Z,1002.03
2017-06-03T06:50:03.259Z,1001.99
2017-06-03T07:00:02.690Z,1002.06
2017-06-03T07:10:02.462Z,1002.08
2017-06-03T07:20:02.607Z,1001.94
2017-06-03T07:30:03.119Z,1001.93
2017-06-03T07:40:02.840Z,1001.91
2017-06-03T07:50:02.915Z,1001.78
2017-06-03T08:00:02.372Z,1001.48
2017-06-03T08:10:03.133Z,1001.45
2017-06-03T08:20:03.067Z,1001.58
2017-06-03T08:30:02.492Z,1001.56
2017-06-03T08:40:02.816Z,1001.4
2017-06-03T08:50:02.380Z,1001.43
2017-06-03T09:00:02.825Z,1001.63
2017-06-03T09:10:02.918Z,1001.4
2017-06-03T09:20:02.632Z,1001.38
2017-06-03T09:30:03.157Z,1001.28
2017-06-03T09:40:02.570Z,1001.31
2017-06-03T09:50:02.713Z,1001.4
2017-06-03T10:00:03.178Z,1001.28
2017-06-03T10:10:03.082Z,1001.17
2017-06-03T10:20:02.405Z,1001.21
2017-06-03T10:30:02.879Z,1001.1
2017-06-03T10:40:03.164Z,1001.11
2017-06-03T10:50:03.191Z,1001.11
2017-06-03T11:00:02.664Z,1001.06
2017-06-03T11:10:03.227Z,1001.06
2017-06-03T11:20:03.363Z,1000.88
2017-06-03T11:30:02.798Z,1000.88
2017-06-03T11:40:03.322Z,1000.73
2017-06-03T11:50:02.526Z,1000.8
2017-06-03T12:00:02.982Z,1000.67
2017-06-03T12:10:02.613Z,1000.52
2017-06-03T12:20:02.636Z,1000.31
2017-06-03T12:30:03.073Z,1000.3
2017-06-03T12:40:02.819Z,1000.03
2017-06-03T12:50:02.409Z,1000
2017-06-03T13:00:02.860Z,999.95
2017-06-03T13:10:02.642Z,999.87
2017-06-03T13:20:03.229Z,999.62
2017-06-03T13:30:02.691Z,999.64
2017-06-03T13:40:03.171Z,999.62
2017-06-03T13:50:03.254Z,999.68
2017-06-03T14:00:02.670Z,999.6
2017-06-03T14:10:03.203Z,999.57
2017-06-03T14:20:02.466Z,999.52
2017-06-03T14:30:02.920Z,999.42
2017-06-03T14:40:02.567Z,999.49
2017-06-03T14:50:02.595Z,999.5
2017-06-03T15:00:03.065Z,999.25
2017-06-03T15:10:02.643Z,999.18
2017-06-03T15:20:02.432Z,999.12
2017-06-03T15:30:02.885Z,999.11
2017-06-03T15:40:02.768Z,999.12
2017-06-03T15:50:02.527Z,998.79
2017-06-03T16:00:02.984Z,998.99
2017-06-03T16:10:02.684Z,998.79
2017-06-03T16:20:03.229Z,999.03
2017-06-03T16:30:02.674Z,998.91
2017-06-03T16:40:03.029Z,999.01
2017-06-03T16:50:03.372Z,998.88
2017-06-03T17:00:02.864Z,998.82
2017-06-03T17:10:02.619Z,998.9
2017-06-03T17:20:02.861Z,998.84
2017-06-03T17:30:03.328Z,999.04
2017-06-03T17:40:03.191Z,998.99
2017-06-03T17:50:02.851Z,999.09
2017-06-03T18:00:03.318Z,999.06
2017-06-03T18:10:03.062Z,999.02
2017-06-03T18:20:02.631Z,998.97
2017-06-03T18:30:03.105Z,998.94
2017-06-03T18:40:02.587Z,999.05
2017-06-03T18:50:03.325Z,998.89
2017-06-03T19:00:02.871Z,998.99
2017-06-03T19:10:02.490Z,998.86
2017-06-03T19:20:02.355Z,998.83
2017-06-03T19:30:02.753Z,998.81
2017-06-03T19:40:02.688Z,998.95
2017-06-03T19:50:02.702Z,998.99
2017-06-03T20:00:03.163Z,998.78
2017-06-03T20:10:02.644Z,998.72
2017-06-03T20:20:02.749Z,998.68
2017-06-03T20:30:03.198Z,998.71
2017-06-03T20:40:02.909Z,998.68
2017-06-03T20:50:03.368Z,998.49
2017-06-03T21:00:02.823Z,998.4
2017-06-03T21:10:03.298Z,998.38
2017-06-03T21:20:02.511Z,998.26
2017-06-03T21:30:02.987Z,998.03
2017-06-03T21:40:02.458Z,997.82
2017-06-03T21:50:03.276Z,997.73
2017-06-03T22:00:02.793Z,997.56
2017-06-03T22:10:03.372Z,997.46
2017-06-03T22:20:02.897Z,997.47
2017-06-03T22:30:02.376Z,997.46
2017-06-03T22:40:02.832Z,997.61
2017-06-03T22:50:02.551Z,997.47
2017-06-03T23:00:03.026Z,997.46
2017-06-03T23:10:02.462Z,997.38
2017-06-03T23:20:02.551Z,997.28
2017-06-03T23:30:02.994Z,997.35
2017-06-03T23:40:03.175Z,997.37
2017-06-03T23:50:02.827Z,997.22
